sensor_id;sensor_type;location;lat;lon;timestamp;P1;durP1;ratioP1;P2;durP2;ratioP2
77991;SDS011;67180;43.534;-5.652;2023-02-08T00:01:07;7.50;;;3.20;;
77991;SDS011;67180;43.534;-5.652;2023-02-08T00:03:33;5.60;;;2.70;;
77991;SDS011;67180;43.534;-5.652;2023-02-08T00:05:59;6.85;;;3.63;;
77991;SDS011;67180;43.534;-5.652;2023-02-08T00:08:25;7.43;;;3.28;;
77991;SDS011;67180;43.534;-5.652;2023-02-08T00:10:51;6.38;;;3.22;;
77991;SDS011;67180;43.534;-5.652;2023-02-08T00:13:18;6.20;;;2.90;;
77991;SDS011;67180;43.534;-5.652;2023-02-08T00:15:44;9.30;;;3.42;;
77991;SDS011;67180;43.534;-5.652;2023-02-08T00:18:11;6.22;;;3.42;;
77991;SDS011;67180;43.534;-5.652;2023-02-08T00:20:37;5.18;;;2.85;;
77991;SDS011;67180;43.534;-5.652;2023-02-08T00:23:04;7.35;;;3.05;;
77991;SDS011;67180;43.534;-5.652;2023-02-08T00:25:30;8.93;;;3.30;;
77991;SDS011;67180;43.534;-5.652;2023-02-08T00:27:56;7.93;;;2.55;;
77991;SDS011;67180;43.534;-5.652;2023-02-08T00:30:23;6.53;;;3.05;;
77991;SDS011;67180;43.534;-5.652;2023-02-08T00:32:49;7.57;;;2.38;;
77991;SDS011;67180;43.534;-5.652;2023-02-08T00:35:15;4.82;;;1.40;;
77991;SDS011;67180;43.534;-5.652;2023-02-08T00:37:41;5.60;;;1.52;;
77991;SDS011;67180;43.534;-5.652;2023-02-08T00:40:07;3.17;;;1.75;;
77991;SDS011;67180;43.534;-5.652;2023-02-08T00:42:34;4.03;;;2.17;;
77991;SDS011;67180;43.534;-5.652;2023-02-08T00:45:00;4.05;;;1.73;;
77991;SDS011;67180;43.534;-5.652;2023-02-08T00:47:27;5.53;;;1.67;;
77991;SDS011;67180;43.534;-5.652;2023-02-08T00:49:53;6.35;;;1.75;;
77991;SDS011;67180;43.534;-5.652;2023-02-08T00:52:20;4.60;;;2.30;;
77991;SDS011;67180;43.534;-5.652;2023-02-08T00:54:46;5.88;;;2.90;;
77991;SDS011;67180;43.534;-5.652;2023-02-08T00:57:13;3.92;;;2.35;;
77991;SDS011;67180;43.534;-5.652;2023-02-08T00:59:39;7.18;;;2.33;;
77991;SDS011;67180;43.534;-5.652;2023-02-08T01:02:06;4.50;;;2.30;;
77991;SDS011;67180;43.534;-5.652;2023-02-08T01:04:32;5.53;;;1.80;;
77991;SDS011;67180;43.534;-5.652;2023-02-08T01:06:58;7.38;;;1.77;;
77991;SDS011;67180;43.534;-5.652;2023-02-08T01:09:24;3.47;;;2.10;;
77991;SDS011;67180;43.534;-5.652;2023-02-08T01:11:50;4.00;;;1.95;;
77991;SDS011;67180;43.534;-5.652;2023-02-08T01:14:17;3.05;;;1.80;;
77991;SDS011;67180;43.534;-5.652;2023-02-08T01:16:43;7.03;;;2.28;;
77991;SDS011;67180;43.534;-5.652;2023-02-08T01:19:09;3.35;;;2.17;;
77991;SDS011;67180;43.534;-5.652;2023-02-08T01:21:36;4.75;;;2.17;;
77991;SDS011;67180;43.534;-5.652;2023-02-08T01:24:03;4.57;;;2.28;;
77991;SDS011;67180;43.534;-5.652;2023-02-08T01:26:30;4.78;;;2.28;;
77991;SDS011;67180;43.534;-5.652;2023-02-08T01:28:56;3.15;;;2.05;;
77991;SDS011;67180;43.534;-5.652;2023-02-08T01:31:25;5.18;;;2.35;;
77991;SDS011;67180;43.534;-5.652;2023-02-08T01:33:55;3.05;;;2.20;;
77991;SDS011;67180;43.534;-5.652;2023-02-08T01:36:21;3.70;;;2.17;;
77991;SDS011;67180;43.534;-5.652;2023-02-08T01:38:48;3.42;;;2.13;;
77991;SDS011;67180;43.534;-5.652;2023-02-08T01:41:16;3.55;;;2.25;;
77991;SDS011;67180;43.534;-5.652;2023-02-08T01:46:21;5.05;;;2.10;;
77991;SDS011;67180;43.534;-5.652;2023-02-08T01:48:48;3.05;;;2.10;;
77991;SDS011;67180;43.534;-5.652;2023-02-08T01:51:19;5.68;;;2.15;;
77991;SDS011;67180;43.534;-5.652;2023-02-08T01:53:46;5.72;;;2.15;;
77991;SDS011;67180;43.534;-5.652;2023-02-08T01:56:16;3.97;;;2.00;;
77991;SDS011;67180;43.534;-5.652;2023-02-08T01:58:44;4.18;;;2.17;;
77991;SDS011;67180;43.534;-5.652;2023-02-08T02:01:11;4.65;;;2.10;;
77991;SDS011;67180;43.534;-5.652;2023-02-08T02:03:37;5.22;;;2.70;;
77991;SDS011;67180;43.534;-5.652;2023-02-08T02:06:06;4.93;;;2.65;;
77991;SDS011;67180;43.534;-5.652;2023-02-08T02:08:33;4.85;;;2.22;;
77991;SDS011;67180;43.534;-5.652;2023-02-08T02:10:59;4.82;;;2.80;;
77991;SDS011;67180;43.534;-5.652;2023-02-08T02:13:26;5.13;;;2.65;;
77991;SDS011;67180;43.534;-5.652;2023-02-08T02:15:52;3.90;;;2.50;;
77991;SDS011;67180;43.534;-5.652;2023-02-08T02:18:23;6.47;;;2.47;;
77991;SDS011;67180;43.534;-5.652;2023-02-08T02:20:58;5.70;;;2.63;;
77991;SDS011;67180;43.534;-5.652;2023-02-08T02:23:41;6.78;;;2.60;;
77991;SDS011;67180;43.534;-5.652;2023-02-08T02:34:44;4.35;;;2.60;;
77991;SDS011;67180;43.534;-5.652;2023-02-08T02:37:23;5.93;;;2.90;;
77991;SDS011;67180;43.534;-5.652;2023-02-08T02:39:54;6.38;;;3.50;;
77991;SDS011;67180;43.534;-5.652;2023-02-08T02:42:28;5.32;;;2.83;;
77991;SDS011;67180;43.534;-5.652;2023-02-08T02:45:09;5.78;;;2.70;;
77991;SDS011;67180;43.534;-5.652;2023-02-08T02:50:19;4.88;;;2.80;;
77991;SDS011;67180;43.534;-5.652;2023-02-08T02:52:51;6.70;;;2.80;;
77991;SDS011;67180;43.534;-5.652;2023-02-08T02:55:23;4.07;;;2.50;;
77991;SDS011;67180;43.534;-5.652;2023-02-08T02:57:50;4.22;;;2.65;;
77991;SDS011;67180;43.534;-5.652;2023-02-08T03:00:20;5.13;;;2.50;;
77991;SDS011;67180;43.534;-5.652;2023-02-08T03:02:47;5.20;;;3.08;;
77991;SDS011;67180;43.534;-5.652;2023-02-08T03:05:14;5.00;;;2.88;;
77991;SDS011;67180;43.534;-5.652;2023-02-08T03:07:45;6.40;;;3.42;;
77991;SDS011;67180;43.534;-5.652;2023-02-08T03:10:17;6.28;;;2.80;;
77991;SDS011;67180;43.534;-5.652;2023-02-08T03:13:00;9.70;;;2.85;;
77991;SDS011;67180;43.534;-5.652;2023-02-08T03:20:37;6.57;;;3.13;;
77991;SDS011;67180;43.534;-5.652;2023-02-08T03:23:14;6.00;;;3.25;;
77991;SDS011;67180;43.534;-5.652;2023-02-08T03:25:49;7.13;;;3.13;;
77991;SDS011;67180;43.534;-5.652;2023-02-08T03:28:24;4.38;;;2.53;;
77991;SDS011;67180;43.534;-5.652;2023-02-08T03:30:58;5.28;;;3.00;;
77991;SDS011;67180;43.534;-5.652;2023-02-08T03:33:32;5.43;;;2.55;;
77991;SDS011;67180;43.534;-5.652;2023-02-08T03:38:39;7.20;;;2.80;;
77991;SDS011;67180;43.534;-5.652;2023-02-08T03:41:07;4.32;;;2.70;;
77991;SDS011;67180;43.534;-5.652;2023-02-08T03:43:36;7.30;;;2.78;;
77991;SDS011;67180;43.534;-5.652;2023-02-08T03:48:46;4.72;;;2.53;;
77991;SDS011;67180;43.534;-5.652;2023-02-08T03:51:14;6.90;;;2.65;;
77991;SDS011;67180;43.534;-5.652;2023-02-08T03:53:41;5.53;;;2.70;;
77991;SDS011;67180;43.534;-5.652;2023-02-08T03:56:11;7.35;;;2.58;;
77991;SDS011;67180;43.534;-5.652;2023-02-08T03:58:40;5.82;;;2.42;;
77991;SDS011;67180;43.534;-5.652;2023-02-08T04:01:17;4.30;;;2.90;;
77991;SDS011;67180;43.534;-5.652;2023-02-08T04:03:44;4.70;;;2.70;;
77991;SDS011;67180;43.534;-5.652;2023-02-08T04:06:14;4.68;;;2.25;;
77991;SDS011;67180;43.534;-5.652;2023-02-08T04:08:40;5.05;;;2.80;;
77991;SDS011;67180;43.534;-5.652;2023-02-08T04:11:07;6.75;;;2.42;;
77991;SDS011;67180;43.534;-5.652;2023-02-08T04:13:33;5.78;;;2.65;;
77991;SDS011;67180;43.534;-5.652;2023-02-08T04:16:00;4.60;;;2.63;;
77991;SDS011;67180;43.534;-5.652;2023-02-08T04:18:26;5.90;;;2.58;;
77991;SDS011;67180;43.534;-5.652;2023-02-08T04:20:52;4.00;;;2.17;;
77991;SDS011;67180;43.534;-5.652;2023-02-08T04:23:18;5.40;;;2.70;;
77991;SDS011;67180;43.534;-5.652;2023-02-08T04:25:44;8.23;;;2.95;;
77991;SDS011;67180;43.534;-5.652;2023-02-08T04:28:10;6.20;;;3.05;;
77991;SDS011;67180;43.534;-5.652;2023-02-08T04:30:37;4.35;;;2.55;;
77991;SDS011;67180;43.534;-5.652;2023-02-08T04:33:03;6.72;;;2.63;;
77991;SDS011;67180;43.534;-5.652;2023-02-08T04:35:29;4.78;;;2.78;;
77991;SDS011;67180;43.534;-5.652;2023-02-08T04:37:55;4.75;;;2.70;;
77991;SDS011;67180;43.534;-5.652;2023-02-08T04:40:22;6.38;;;2.83;;
77991;SDS011;67180;43.534;-5.652;2023-02-08T04:42:48;5.03;;;2.60;;
77991;SDS011;67180;43.534;-5.652;2023-02-08T04:45:21;5.88;;;3.03;;
77991;SDS011;67180;43.534;-5.652;2023-02-08T04:47:49;7.15;;;2.70;;
77991;SDS011;67180;43.534;-5.652;2023-02-08T04:50:15;5.32;;;2.70;;
77991;SDS011;67180;43.534;-5.652;2023-02-08T04:52:41;3.78;;;2.70;;
77991;SDS011;67180;43.534;-5.652;2023-02-08T04:55:07;5.20;;;3.00;;
77991;SDS011;67180;43.534;-5.652;2023-02-08T04:57:33;6.55;;;3.10;;
77991;SDS011;67180;43.534;-5.652;2023-02-08T04:59:59;6.75;;;3.00;;
77991;SDS011;67180;43.534;-5.652;2023-02-08T05:02:26;5.78;;;2.60;;
77991;SDS011;67180;43.534;-5.652;2023-02-08T05:04:52;5.40;;;2.85;;
77991;SDS011;67180;43.534;-5.652;2023-02-08T05:07:18;6.93;;;2.90;;
77991;SDS011;67180;43.534;-5.652;2023-02-08T05:09:44;4.60;;;2.80;;
77991;SDS011;67180;43.534;-5.652;2023-02-08T05:12:11;5.25;;;2.97;;
77991;SDS011;67180;43.534;-5.652;2023-02-08T05:14:37;5.50;;;2.53;;
77991;SDS011;67180;43.534;-5.652;2023-02-08T05:17:03;4.15;;;2.90;;
77991;SDS011;67180;43.534;-5.652;2023-02-08T05:19:29;6.50;;;3.42;;
77991;SDS011;67180;43.534;-5.652;2023-02-08T05:21:55;9.52;;;3.47;;
77991;SDS011;67180;43.534;-5.652;2023-02-08T05:24:21;5.38;;;3.60;;
77991;SDS011;67180;43.534;-5.652;2023-02-08T05:26:48;9.07;;;3.30;;
77991;SDS011;67180;43.534;-5.652;2023-02-08T05:29:14;5.55;;;3.03;;
77991;SDS011;67180;43.534;-5.652;2023-02-08T05:31:40;5.30;;;3.30;;
77991;SDS011;67180;43.534;-5.652;2023-02-08T05:34:06;9.18;;;3.65;;
77991;SDS011;67180;43.534;-5.652;2023-02-08T05:36:32;5.70;;;3.47;;
77991;SDS011;67180;43.534;-5.652;2023-02-08T05:38:59;5.85;;;3.50;;
77991;SDS011;67180;43.534;-5.652;2023-02-08T05:41:25;7.28;;;3.40;;
77991;SDS011;67180;43.534;-5.652;2023-02-08T05:43:51;6.50;;;3.40;;
77991;SDS011;67180;43.534;-5.652;2023-02-08T05:46:17;5.95;;;3.53;;
77991;SDS011;67180;43.534;-5.652;2023-02-08T05:48:43;4.53;;;3.03;;
77991;SDS011;67180;43.534;-5.652;2023-02-08T05:51:09;5.70;;;3.42;;
77991;SDS011;67180;43.534;-5.652;2023-02-08T05:53:36;6.20;;;2.92;;
77991;SDS011;67180;43.534;-5.652;2023-02-08T05:56:02;5.43;;;3.03;;
77991;SDS011;67180;43.534;-5.652;2023-02-08T05:58:28;5.07;;;2.90;;
77991;SDS011;67180;43.534;-5.652;2023-02-08T06:00:55;6.53;;;3.03;;
77991;SDS011;67180;43.534;-5.652;2023-02-08T06:03:21;4.93;;;2.90;;
77991;SDS011;67180;43.534;-5.652;2023-02-08T06:05:47;6.63;;;2.60;;
77991;SDS011;67180;43.534;-5.652;2023-02-08T06:08:13;4.57;;;2.72;;
77991;SDS011;67180;43.534;-5.652;2023-02-08T06:10:40;5.20;;;2.53;;
77991;SDS011;67180;43.534;-5.652;2023-02-08T06:13:06;7.07;;;2.45;;
77991;SDS011;67180;43.534;-5.652;2023-02-08T06:15:33;7.35;;;2.53;;
77991;SDS011;67180;43.534;-5.652;2023-02-08T06:17:59;4.05;;;2.10;;
77991;SDS011;67180;43.534;-5.652;2023-02-08T06:20:25;6.38;;;2.40;;
77991;SDS011;67180;43.534;-5.652;2023-02-08T06:22:51;5.43;;;2.65;;
77991;SDS011;67180;43.534;-5.652;2023-02-08T06:25:17;9.60;;;2.78;;
77991;SDS011;67180;43.534;-5.652;2023-02-08T06:27:44;5.28;;;2.58;;
77991;SDS011;67180;43.534;-5.652;2023-02-08T06:30:11;4.85;;;2.67;;
77991;SDS011;67180;43.534;-5.652;2023-02-08T06:32:37;4.90;;;2.53;;
77991;SDS011;67180;43.534;-5.652;2023-02-08T06:35:04;4.28;;;2.20;;
77991;SDS011;67180;43.534;-5.652;2023-02-08T06:37:30;4.43;;;2.20;;
77991;SDS011;67180;43.534;-5.652;2023-02-08T06:39:56;3.30;;;2.00;;
77991;SDS011;67180;43.534;-5.652;2023-02-08T06:42:23;4.78;;;2.63;;
77991;SDS011;67180;43.534;-5.652;2023-02-08T06:44:50;4.03;;;2.47;;
77991;SDS011;67180;43.534;-5.652;2023-02-08T06:47:19;4.20;;;2.33;;
77991;SDS011;67180;43.534;-5.652;2023-02-08T06:49:45;4.95;;;2.40;;
77991;SDS011;67180;43.534;-5.652;2023-02-08T06:52:11;5.00;;;2.88;;
77991;SDS011;67180;43.534;-5.652;2023-02-08T06:54:37;4.80;;;2.40;;
77991;SDS011;67180;43.534;-5.652;2023-02-08T06:57:04;4.85;;;2.80;;
77991;SDS011;67180;43.534;-5.652;2023-02-08T06:59:32;10.50;;;2.72;;
77991;SDS011;67180;43.534;-5.652;2023-02-08T07:01:58;9.85;;;2.85;;
77991;SDS011;67180;43.534;-5.652;2023-02-08T07:04:24;3.45;;;2.13;;
77991;SDS011;67180;43.534;-5.652;2023-02-08T07:06:51;3.60;;;2.20;;
77991;SDS011;67180;43.534;-5.652;2023-02-08T07:09:17;4.88;;;2.60;;
77991;SDS011;67180;43.534;-5.652;2023-02-08T07:11:43;5.35;;;2.40;;
77991;SDS011;67180;43.534;-5.652;2023-02-08T07:14:11;3.97;;;2.53;;
77991;SDS011;67180;43.534;-5.652;2023-02-08T07:16:37;6.47;;;2.70;;
77991;SDS011;67180;43.534;-5.652;2023-02-08T07:19:03;8.50;;;2.60;;
77991;SDS011;67180;43.534;-5.652;2023-02-08T07:21:29;4.43;;;2.75;;
77991;SDS011;67180;43.534;-5.652;2023-02-08T07:23:56;6.68;;;2.58;;
77991;SDS011;67180;43.534;-5.652;2023-02-08T07:26:22;5.07;;;2.78;;
77991;SDS011;67180;43.534;-5.652;2023-02-08T07:28:48;4.18;;;2.58;;
77991;SDS011;67180;43.534;-5.652;2023-02-08T07:31:15;5.80;;;2.92;;
77991;SDS011;67180;43.534;-5.652;2023-02-08T07:33:42;7.68;;;3.10;;
77991;SDS011;67180;43.534;-5.652;2023-02-08T07:36:08;6.30;;;3.03;;
77991;SDS011;67180;43.534;-5.652;2023-02-08T07:38:35;6.45;;;3.10;;
77991;SDS011;67180;43.534;-5.652;2023-02-08T07:41:03;8.20;;;2.97;;
77991;SDS011;67180;43.534;-5.652;2023-02-08T07:43:30;9.20;;;2.88;;
77991;SDS011;67180;43.534;-5.652;2023-02-08T07:45:56;8.50;;;2.58;;
77991;SDS011;67180;43.534;-5.652;2023-02-08T07:48:22;6.97;;;2.45;;
77991;SDS011;67180;43.534;-5.652;2023-02-08T07:50:49;6.18;;;2.58;;
77991;SDS011;67180;43.534;-5.652;2023-02-08T07:53:15;3.55;;;2.38;;
77991;SDS011;67180;43.534;-5.652;2023-02-08T07:55:43;4.80;;;2.65;;
77991;SDS011;67180;43.534;-5.652;2023-02-08T07:58:09;7.20;;;3.13;;
77991;SDS011;67180;43.534;-5.652;2023-02-08T08:00:37;7.55;;;3.80;;
77991;SDS011;67180;43.534;-5.652;2023-02-08T08:03:07;7.78;;;3.55;;
77991;SDS011;67180;43.534;-5.652;2023-02-08T08:05:42;9.93;;;4.35;;
77991;SDS011;67180;43.534;-5.652;2023-02-08T08:08:14;6.90;;;3.95;;
77991;SDS011;67180;43.534;-5.652;2023-02-08T08:11:04;16.60;;;4.60;;
77991;SDS011;67180;43.534;-5.652;2023-02-08T08:13:39;11.27;;;4.60;;
77991;SDS011;67180;43.534;-5.652;2023-02-08T08:16:13;8.13;;;4.25;;
77991;SDS011;67180;43.534;-5.652;2023-02-08T08:21:34;9.10;;;3.80;;
77991;SDS011;67180;43.534;-5.652;2023-02-08T08:24:01;10.10;;;3.45;;
77991;SDS011;67180;43.534;-5.652;2023-02-08T08:26:29;9.38;;;3.88;;
77991;SDS011;67180;43.534;-5.652;2023-02-08T08:29:11;8.23;;;3.90;;
77991;SDS011;67180;43.534;-5.652;2023-02-08T08:31:42;9.60;;;4.22;;
77991;SDS011;67180;43.534;-5.652;2023-02-08T08:34:14;10.60;;;4.35;;
77991;SDS011;67180;43.534;-5.652;2023-02-08T08:37:16;10.05;;;4.43;;
77991;SDS011;67180;43.534;-5.652;2023-02-08T08:40:01;6.28;;;4.18;;
77991;SDS011;67180;43.534;-5.652;2023-02-08T08:43:02;11.02;;;4.00;;
77991;SDS011;67180;43.534;-5.652;2023-02-08T08:45:29;10.30;;;4.30;;
77991;SDS011;67180;43.534;-5.652;2023-02-08T08:48:05;10.82;;;4.47;;
77991;SDS011;67180;43.534;-5.652;2023-02-08T08:50:32;6.50;;;3.50;;
77991;SDS011;67180;43.534;-5.652;2023-02-08T08:52:58;11.73;;;3.72;;
77991;SDS011;67180;43.534;-5.652;2023-02-08T08:55:24;9.95;;;4.05;;
77991;SDS011;67180;43.534;-5.652;2023-02-08T08:57:52;7.82;;;3.40;;
77991;SDS011;67180;43.534;-5.652;2023-02-08T09:00:19;6.78;;;3.17;;
77991;SDS011;67180;43.534;-5.652;2023-02-08T09:02:47;7.40;;;3.28;;
77991;SDS011;67180;43.534;-5.652;2023-02-08T09:05:18;7.20;;;2.92;;
77991;SDS011;67180;43.534;-5.652;2023-02-08T09:07:51;11.32;;;3.55;;
77991;SDS011;67180;43.534;-5.652;2023-02-08T09:10:18;8.32;;;3.58;;
77991;SDS011;67180;43.534;-5.652;2023-02-08T09:13:27;8.02;;;3.70;;
77991;SDS011;67180;43.534;-5.652;2023-02-08T09:16:05;7.05;;;3.60;;
77991;SDS011;67180;43.534;-5.652;2023-02-08T09:18:45;8.90;;;3.72;;
77991;SDS011;67180;43.534;-5.652;2023-02-08T09:24:24;6.25;;;3.50;;
77991;SDS011;67180;43.534;-5.652;2023-02-08T09:27:03;6.15;;;3.55;;
77991;SDS011;67180;43.534;-5.652;2023-02-08T09:29:34;6.97;;;4.13;;
77991;SDS011;67180;43.534;-5.652;2023-02-08T09:32:00;5.97;;;4.35;;
77991;SDS011;67180;43.534;-5.652;2023-02-08T09:34:30;8.55;;;4.45;;
77991;SDS011;67180;43.534;-5.652;2023-02-08T09:36:59;7.47;;;4.55;;
77991;SDS011;67180;43.534;-5.652;2023-02-08T09:39:25;11.82;;;4.38;;
77991;SDS011;67180;43.534;-5.652;2023-02-08T09:44:35;8.82;;;4.63;;
77991;SDS011;67180;43.534;-5.652;2023-02-08T09:47:06;7.95;;;4.43;;
77991;SDS011;67180;43.534;-5.652;2023-02-08T09:49:39;8.73;;;4.57;;
77991;SDS011;67180;43.534;-5.652;2023-02-08T09:52:10;8.95;;;4.63;;
77991;SDS011;67180;43.534;-5.652;2023-02-08T09:54:39;10.95;;;5.20;;
77991;SDS011;67180;43.534;-5.652;2023-02-08T09:57:09;10.48;;;4.45;;
77991;SDS011;67180;43.534;-5.652;2023-02-08T09:59:38;10.35;;;4.28;;
77991;SDS011;67180;43.534;-5.652;2023-02-08T10:02:22;10.50;;;4.55;;
77991;SDS011;67180;43.534;-5.652;2023-02-08T10:07:29;9.57;;;4.80;;
77991;SDS011;67180;43.534;-5.652;2023-02-08T10:09:56;11.25;;;4.30;;
77991;SDS011;67180;43.534;-5.652;2023-02-08T10:12:35;6.32;;;4.32;;
77991;SDS011;67180;43.534;-5.652;2023-02-08T10:15:08;11.75;;;4.90;;
77991;SDS011;67180;43.534;-5.652;2023-02-08T10:17:59;7.57;;;4.88;;
77991;SDS011;67180;43.534;-5.652;2023-02-08T10:23:09;11.90;;;4.63;;
77991;SDS011;67180;43.534;-5.652;2023-02-08T10:25:40;9.93;;;4.47;;
77991;SDS011;67180;43.534;-5.652;2023-02-08T10:30:52;10.77;;;4.35;;
77991;SDS011;67180;43.534;-5.652;2023-02-08T10:33:21;5.90;;;3.28;;
77991;SDS011;67180;43.534;-5.652;2023-02-08T10:35:51;7.53;;;3.38;;
77991;SDS011;67180;43.534;-5.652;2023-02-08T10:38:28;7.70;;;3.35;;
77991;SDS011;67180;43.534;-5.652;2023-02-08T10:40:57;9.85;;;3.47;;
77991;SDS011;67180;43.534;-5.652;2023-02-08T10:43:41;8.07;;;3.80;;
77991;SDS011;67180;43.534;-5.652;2023-02-08T10:46:13;10.00;;;4.70;;
77991;SDS011;67180;43.534;-5.652;2023-02-08T10:51:18;6.50;;;3.55;;
77991;SDS011;67180;43.534;-5.652;2023-02-08T10:53:45;7.38;;;2.88;;
77991;SDS011;67180;43.534;-5.652;2023-02-08T10:56:16;8.05;;;1.95;;
77991;SDS011;67180;43.534;-5.652;2023-02-08T10:58:47;5.43;;;1.92;;
77991;SDS011;67180;43.534;-5.652;2023-02-08T11:01:13;8.73;;;1.75;;
77991;SDS011;67180;43.534;-5.652;2023-02-08T11:03:58;4.55;;;1.73;;
77991;SDS011;67180;43.534;-5.652;2023-02-08T11:06:25;2.97;;;1.33;;
77991;SDS011;67180;43.534;-5.652;2023-02-08T11:08:53;2.88;;;1.38;;
77991;SDS011;67180;43.534;-5.652;2023-02-08T11:11:20;4.88;;;1.55;;
77991;SDS011;67180;43.534;-5.652;2023-02-08T11:13:47;5.40;;;1.45;;
77991;SDS011;67180;43.534;-5.652;2023-02-08T11:18:57;3.42;;;1.35;;
77991;SDS011;67180;43.534;-5.652;2023-02-08T11:21:26;3.10;;;1.48;;
77991;SDS011;67180;43.534;-5.652;2023-02-08T11:23:56;3.20;;;1.55;;
77991;SDS011;67180;43.534;-5.652;2023-02-08T11:26:24;4.18;;;1.60;;
77991;SDS011;67180;43.534;-5.652;2023-02-08T11:28:59;3.05;;;1.50;;
77991;SDS011;67180;43.534;-5.652;2023-02-08T11:31:26;2.73;;;1.40;;
77991;SDS011;67180;43.534;-5.652;2023-02-08T11:34:00;2.85;;;1.60;;
77991;SDS011;67180;43.534;-5.652;2023-02-08T11:36:27;2.95;;;1.50;;
77991;SDS011;67180;43.534;-5.652;2023-02-08T11:38:54;2.75;;;1.60;;
77991;SDS011;67180;43.534;-5.652;2023-02-08T11:41:21;6.82;;;3.00;;
77991;SDS011;67180;43.534;-5.652;2023-02-08T11:43:53;4.28;;;1.83;;
77991;SDS011;67180;43.534;-5.652;2023-02-08T11:46:22;1.85;;;1.30;;
77991;SDS011;67180;43.534;-5.652;2023-02-08T11:48:49;3.67;;;1.40;;
77991;SDS011;67180;43.534;-5.652;2023-02-08T11:51:31;7.10;;;1.48;;
77991;SDS011;67180;43.534;-5.652;2023-02-08T11:53:59;3.80;;;1.40;;
77991;SDS011;67180;43.534;-5.652;2023-02-08T11:56:30;3.30;;;1.30;;
77991;SDS011;67180;43.534;-5.652;2023-02-08T11:58:59;3.90;;;1.25;;
77991;SDS011;67180;43.534;-5.652;2023-02-08T12:01:27;2.63;;;1.35;;
77991;SDS011;67180;43.534;-5.652;2023-02-08T12:03:54;9.90;;;2.20;;
77991;SDS011;67180;43.534;-5.652;2023-02-08T12:06:29;8.32;;;2.72;;
77991;SDS011;67180;43.534;-5.652;2023-02-08T12:09:17;7.15;;;2.78;;
77991;SDS011;67180;43.534;-5.652;2023-02-08T12:11:47;8.88;;;2.75;;
77991;SDS011;67180;43.534;-5.652;2023-02-08T12:17:10;6.85;;;2.20;;
77991;SDS011;67180;43.534;-5.652;2023-02-08T12:19:48;8.80;;;1.90;;
77991;SDS011;67180;43.534;-5.652;2023-02-08T12:22:22;7.40;;;2.00;;
77991;SDS011;67180;43.534;-5.652;2023-02-08T12:24:56;5.78;;;1.80;;
77991;SDS011;67180;43.534;-5.652;2023-02-08T12:41:30;3.90;;;2.03;;
77991;SDS011;67180;43.534;-5.652;2023-02-08T12:47:00;4.50;;;1.85;;
77991;SDS011;67180;43.534;-5.652;2023-02-08T12:49:31;4.85;;;1.85;;
77991;SDS011;67180;43.534;-5.652;2023-02-08T12:52:04;4.65;;;1.80;;
77991;SDS011;67180;43.534;-5.652;2023-02-08T12:54:36;7.43;;;2.10;;
77991;SDS011;67180;43.534;-5.652;2023-02-08T12:57:05;12.82;;;3.33;;
77991;SDS011;67180;43.534;-5.652;2023-02-08T12:59:34;11.60;;;3.15;;
77991;SDS011;67180;43.534;-5.652;2023-02-08T13:02:09;10.65;;;2.92;;
77991;SDS011;67180;43.534;-5.652;2023-02-08T13:04:38;15.13;;;2.97;;
77991;SDS011;67180;43.534;-5.652;2023-02-08T13:07:10;11.20;;;3.30;;
77991;SDS011;67180;43.534;-5.652;2023-02-08T13:09:39;13.95;;;3.50;;
77991;SDS011;67180;43.534;-5.652;2023-02-08T13:12:23;10.55;;;2.80;;
77991;SDS011;67180;43.534;-5.652;2023-02-08T13:14:51;13.75;;;2.97;;
77991;SDS011;67180;43.534;-5.652;2023-02-08T13:19:59;11.30;;;2.85;;
77991;SDS011;67180;43.534;-5.652;2023-02-08T13:22:30;8.88;;;2.75;;
77991;SDS011;67180;43.534;-5.652;2023-02-08T13:24:56;11.20;;;3.10;;
77991;SDS011;67180;43.534;-5.652;2023-02-08T13:27:22;12.70;;;3.30;;
77991;SDS011;67180;43.534;-5.652;2023-02-08T13:29:50;11.35;;;3.38;;
77991;SDS011;67180;43.534;-5.652;2023-02-08T13:32:18;12.15;;;3.17;;
77991;SDS011;67180;43.534;-5.652;2023-02-08T13:34:49;10.60;;;3.03;;
77991;SDS011;67180;43.534;-5.652;2023-02-08T13:37:18;18.00;;;3.28;;
77991;SDS011;67180;43.534;-5.652;2023-02-08T13:39:44;12.93;;;3.15;;
77991;SDS011;67180;43.534;-5.652;2023-02-08T13:42:20;9.48;;;2.58;;
77991;SDS011;67180;43.534;-5.652;2023-02-08T13:44:48;14.85;;;2.97;;
77991;SDS011;67180;43.534;-5.652;2023-02-08T13:47:23;11.23;;;3.28;;
77991;SDS011;67180;43.534;-5.652;2023-02-08T13:49:52;11.52;;;2.90;;
77991;SDS011;67180;43.534;-5.652;2023-02-08T13:57:49;9.32;;;2.80;;
77991;SDS011;67180;43.534;-5.652;2023-02-08T14:00:26;8.05;;;2.65;;
77991;SDS011;67180;43.534;-5.652;2023-02-08T14:08:20;11.05;;;2.75;;
77991;SDS011;67180;43.534;-5.652;2023-02-08T14:10:59;9.55;;;2.53;;
77991;SDS011;67180;43.534;-5.652;2023-02-08T14:18:36;9.70;;;2.67;;
77991;SDS011;67180;43.534;-5.652;2023-02-08T14:21:04;10.57;;;3.03;;
77991;SDS011;67180;43.534;-5.652;2023-02-08T14:23:31;8.88;;;3.05;;
77991;SDS011;67180;43.534;-5.652;2023-02-08T14:25:58;5.88;;;2.45;;
77991;SDS011;67180;43.534;-5.652;2023-02-08T14:28:36;8.30;;;2.28;;
77991;SDS011;67180;43.534;-5.652;2023-02-08T14:31:04;7.47;;;2.40;;
77991;SDS011;67180;43.534;-5.652;2023-02-08T14:33:34;7.57;;;2.50;;
77991;SDS011;67180;43.534;-5.652;2023-02-08T14:36:03;8.30;;;2.63;;
77991;SDS011;67180;43.534;-5.652;2023-02-08T14:38:32;6.45;;;2.40;;
77991;SDS011;67180;43.534;-5.652;2023-02-08T14:43:28;5.75;;;2.00;;
77991;SDS011;67180;43.534;-5.652;2023-02-08T14:45:55;5.40;;;1.90;;
77991;SDS011;67180;43.534;-5.652;2023-02-08T14:48:25;7.03;;;2.15;;
77991;SDS011;67180;43.534;-5.652;2023-02-08T14:50:54;5.22;;;2.00;;
77991;SDS011;67180;43.534;-5.652;2023-02-08T14:53:24;6.85;;;2.53;;
77991;SDS011;67180;43.534;-5.652;2023-02-08T14:55:55;7.03;;;2.40;;
77991;SDS011;67180;43.534;-5.652;2023-02-08T14:58:25;9.30;;;2.63;;
77991;SDS011;67180;43.534;-5.652;2023-02-08T15:00:52;6.55;;;2.70;;
77991;SDS011;67180;43.534;-5.652;2023-02-08T15:03:19;9.73;;;2.60;;
77991;SDS011;67180;43.534;-5.652;2023-02-08T15:05:56;13.05;;;2.70;;
77991;SDS011;67180;43.534;-5.652;2023-02-08T15:08:25;9.65;;;2.95;;
77991;SDS011;67180;43.534;-5.652;2023-02-08T15:10:52;9.98;;;2.78;;
77991;SDS011;67180;43.534;-5.652;2023-02-08T15:13:19;9.10;;;3.10;;
77991;SDS011;67180;43.534;-5.652;2023-02-08T15:18:17;7.68;;;2.85;;
77991;SDS011;67180;43.534;-5.652;2023-02-08T15:20:44;12.40;;;2.95;;
77991;SDS011;67180;43.534;-5.652;2023-02-08T15:23:20;14.50;;;3.08;;
77991;SDS011;67180;43.534;-5.652;2023-02-08T15:25:55;11.35;;;2.95;;
77991;SDS011;67180;43.534;-5.652;2023-02-08T15:28:22;7.60;;;2.92;;
77991;SDS011;67180;43.534;-5.652;2023-02-08T15:33:27;9.07;;;2.95;;
77991;SDS011;67180;43.534;-5.652;2023-02-08T15:35:57;15.02;;;3.30;;
77991;SDS011;67180;43.534;-5.652;2023-02-08T15:38:25;9.52;;;2.60;;
77991;SDS011;67180;43.534;-5.652;2023-02-08T15:41:00;7.60;;;2.50;;
77991;SDS011;67180;43.534;-5.652;2023-02-08T15:43:27;9.07;;;2.90;;
77991;SDS011;67180;43.534;-5.652;2023-02-08T15:45:55;8.98;;;3.10;;
77991;SDS011;67180;43.534;-5.652;2023-02-08T15:48:21;14.98;;;3.53;;
77991;SDS011;67180;43.534;-5.652;2023-02-08T15:50:47;8.77;;;2.97;;
77991;SDS011;67180;43.534;-5.652;2023-02-08T15:53:14;11.82;;;3.25;;
77991;SDS011;67180;43.534;-5.652;2023-02-08T15:55:50;9.18;;;3.05;;
77991;SDS011;67180;43.534;-5.652;2023-02-08T15:58:22;14.32;;;2.95;;
77991;SDS011;67180;43.534;-5.652;2023-02-08T16:00:52;9.80;;;3.42;;
77991;SDS011;67180;43.534;-5.652;2023-02-08T16:03:20;8.52;;;3.05;;
77991;SDS011;67180;43.534;-5.652;2023-02-08T16:05:49;9.90;;;2.88;;
77991;SDS011;67180;43.534;-5.652;2023-02-08T16:08:19;11.80;;;3.20;;
77991;SDS011;67180;43.534;-5.652;2023-02-08T16:10:46;10.30;;;3.30;;
77991;SDS011;67180;43.534;-5.652;2023-02-08T16:13:16;11.48;;;2.88;;
77991;SDS011;67180;43.534;-5.652;2023-02-08T16:15:44;13.27;;;2.80;;
77991;SDS011;67180;43.534;-5.652;2023-02-08T16:18:45;8.05;;;3.00;;